sensor_id;sensor_type;location;lat;lon;timestamp;temperature;humidity
12130;DHT22;6128;59.340;18.040;2022-11-30T00:00:26;4.30;99.90
12130;DHT22;6128;59.340;18.040;2022-11-30T00:02:55;4.30;99.90
12130;DHT22;6128;59.340;18.040;2022-11-30T00:05:23;4.30;99.90
12130;DHT22;6128;59.340;18.040;2022-11-30T00:07:50;4.30;99.90
12130;DHT22;6128;59.340;18.040;2022-11-30T00:10:19;4.30;99.90
12130;DHT22;6128;59.340;18.040;2022-11-30T00:12:46;4.30;99.90
12130;DHT22;6128;59.340;18.040;2022-11-30T00:15:14;4.30;99.90
12130;DHT22;6128;59.340;18.040;2022-11-30T00:17:42;4.30;99.90
12130;DHT22;6128;59.340;18.040;2022-11-30T00:20:13;4.30;99.90
12130;DHT22;6128;59.340;18.040;2022-11-30T00:22:41;4.30;99.90
12130;DHT22;6128;59.340;18.040;2022-11-30T00:25:09;4.30;99.90
12130;DHT22;6128;59.340;18.040;2022-11-30T00:27:36;4.30;99.90
12130;DHT22;6128;59.340;18.040;2022-11-30T00:30:04;4.30;99.90
12130;DHT22;6128;59.340;18.040;2022-11-30T00:32:32;4.30;99.90
12130;DHT22;6128;59.340;18.040;2022-11-30T00:34:59;4.30;99.90
12130;DHT22;6128;59.340;18.040;2022-11-30T00:37:28;4.40;99.90
12130;DHT22;6128;59.340;18.040;2022-11-30T00:39:56;4.40;99.90
12130;DHT22;6128;59.340;18.040;2022-11-30T00:42:23;4.40;99.90
12130;DHT22;6128;59.340;18.040;2022-11-30T00:44:50;4.40;99.90
12130;DHT22;6128;59.340;18.040;2022-11-30T00:47:17;4.40;99.90
12130;DHT22;6128;59.340;18.040;2022-11-30T00:49:44;4.30;99.90
12130;DHT22;6128;59.340;18.040;2022-11-30T00:52:11;4.30;99.90
12130;DHT22;6128;59.340;18.040;2022-11-30T00:54:40;4.30;99.90
12130;DHT22;6128;59.340;18.040;2022-11-30T00:57:07;4.30;99.90
12130;DHT22;6128;59.340;18.040;2022-11-30T00:59:35;4.30;99.90
12130;DHT22;6128;59.340;18.040;2022-11-30T01:02:02;4.40;99.90
12130;DHT22;6128;59.340;18.040;2022-11-30T01:04:29;4.40;99.90
12130;DHT22;6128;59.340;18.040;2022-11-30T01:06:56;4.40;99.90
12130;DHT22;6128;59.340;18.040;2022-11-30T01:09:23;4.40;99.90
12130;DHT22;6128;59.340;18.040;2022-11-30T01:11:53;4.40;99.90
12130;DHT22;6128;59.340;18.040;2022-11-30T01:14:21;4.40;99.90
12130;DHT22;6128;59.340;18.040;2022-11-30T01:16:48;4.40;99.90
12130;DHT22;6128;59.340;18.040;2022-11-30T01:19:16;4.40;99.90
12130;DHT22;6128;59.340;18.040;2022-11-30T01:21:43;4.50;99.90
12130;DHT22;6128;59.340;18.040;2022-11-30T01:24:11;4.50;99.90
12130;DHT22;6128;59.340;18.040;2022-11-30T01:26:39;4.50;99.90
12130;DHT22;6128;59.340;18.040;2022-11-30T01:29:08;4.50;99.90
12130;DHT22;6128;59.340;18.040;2022-11-30T01:31:37;4.60;99.90
12130;DHT22;6128;59.340;18.040;2022-11-30T01:34:04;4.60;99.90
12130;DHT22;6128;59.340;18.040;2022-11-30T01:36:32;4.50;99.90
12130;DHT22;6128;59.340;18.040;2022-11-30T01:39:06;4.50;99.90
12130;DHT22;6128;59.340;18.040;2022-11-30T01:41:37;4.50;99.90
12130;DHT22;6128;59.340;18.040;2022-11-30T01:47:19;4.50;99.90
12130;DHT22;6128;59.340;18.040;2022-11-30T01:49:52;4.40;99.90
12130;DHT22;6128;59.340;18.040;2022-11-30T01:52:25;4.40;99.90
12130;DHT22;6128;59.340;18.040;2022-11-30T01:54:57;4.30;99.90
12130;DHT22;6128;59.340;18.040;2022-11-30T01:57:30;4.30;99.90
12130;DHT22;6128;59.340;18.040;2022-11-30T02:00:05;4.30;99.90
12130;DHT22;6128;59.340;18.040;2022-11-30T02:02:39;4.30;99.90
12130;DHT22;6128;59.340;18.040;2022-11-30T02:05:10;4.30;99.90
12130;DHT22;6128;59.340;18.040;2022-11-30T02:07:39;4.30;99.90
12130;DHT22;6128;59.340;18.040;2022-11-30T02:10:12;4.30;99.90
12130;DHT22;6128;59.340;18.040;2022-11-30T02:12:56;4.30;99.90
12130;DHT22;6128;59.340;18.040;2022-11-30T02:15:32;4.30;99.90
12130;DHT22;6128;59.340;18.040;2022-11-30T02:18:06;4.30;99.90
12130;DHT22;6128;59.340;18.040;2022-11-30T02:20:49;4.30;99.90
12130;DHT22;6128;59.340;18.040;2022-11-30T02:23:48;4.30;99.90
12130;DHT22;6128;59.340;18.040;2022-11-30T02:29:15;4.30;99.90
12130;DHT22;6128;59.340;18.040;2022-11-30T02:31:52;4.30;99.90
12130;DHT22;6128;59.340;18.040;2022-11-30T02:34:26;4.30;99.90
12130;DHT22;6128;59.340;18.040;2022-11-30T02:36:54;4.30;99.90
12130;DHT22;6128;59.340;18.040;2022-11-30T02:39:22;4.30;99.90
12130;DHT22;6128;59.340;18.040;2022-11-30T02:41:49;4.30;99.90
12130;DHT22;6128;59.340;18.040;2022-11-30T02:44:20;4.40;99.90
12130;DHT22;6128;59.340;18.040;2022-11-30T02:46:59;4.30;99.90
12130;DHT22;6128;59.340;18.040;2022-11-30T02:49:32;4.30;99.90
12130;DHT22;6128;59.340;18.040;2022-11-30T02:52:02;4.30;99.90
12130;DHT22;6128;59.340;18.040;2022-11-30T02:54:31;4.30;99.90
12130;DHT22;6128;59.340;18.040;2022-11-30T02:56:58;4.30;99.90
12130;DHT22;6128;59.340;18.040;2022-11-30T02:59:27;4.30;99.90
12130;DHT22;6128;59.340;18.040;2022-11-30T03:01:54;4.30;99.90
12130;DHT22;6128;59.340;18.040;2022-11-30T03:04:22;4.30;99.90
12130;DHT22;6128;59.340;18.040;2022-11-30T03:06:49;4.30;99.90
12130;DHT22;6128;59.340;18.040;2022-11-30T03:09:16;4.40;99.90
12130;DHT22;6128;59.340;18.040;2022-11-30T03:11:43;4.30;99.90
12130;DHT22;6128;59.340;18.040;2022-11-30T03:14:11;4.30;99.90
12130;DHT22;6128;59.340;18.040;2022-11-30T03:16:41;4.30;99.90
12130;DHT22;6128;59.340;18.040;2022-11-30T03:19:09;4.30;99.90
12130;DHT22;6128;59.340;18.040;2022-11-30T03:21:38;4.30;99.90
12130;DHT22;6128;59.340;18.040;2022-11-30T03:24:06;4.30;99.90
12130;DHT22;6128;59.340;18.040;2022-11-30T03:26:34;4.20;99.90
12130;DHT22;6128;59.340;18.040;2022-11-30T03:29:01;4.20;99.90
12130;DHT22;6128;59.340;18.040;2022-11-30T03:31:28;4.20;99.90
12130;DHT22;6128;59.340;18.040;2022-11-30T03:33:57;4.10;99.90
12130;DHT22;6128;59.340;18.040;2022-11-30T03:36:25;4.10;99.90
12130;DHT22;6128;59.340;18.040;2022-11-30T03:38:52;4.10;99.90
12130;DHT22;6128;59.340;18.040;2022-11-30T03:41:19;4.10;99.90
12130;DHT22;6128;59.340;18.040;2022-11-30T03:43:46;4.10;99.90
12130;DHT22;6128;59.340;18.040;2022-11-30T03:46:14;4.10;99.90
12130;DHT22;6128;59.340;18.040;2022-11-30T03:48:41;4.10;99.90
12130;DHT22;6128;59.340;18.040;2022-11-30T03:51:11;4.10;99.90
12130;DHT22;6128;59.340;18.040;2022-11-30T03:53:39;4.10;99.90
12130;DHT22;6128;59.340;18.040;2022-11-30T03:56:08;4.00;99.90
12130;DHT22;6128;59.340;18.040;2022-11-30T03:58:36;4.00;99.90
12130;DHT22;6128;59.340;18.040;2022-11-30T04:01:05;4.00;99.90
12130;DHT22;6128;59.340;18.040;2022-11-30T04:03:33;4.00;99.90
12130;DHT22;6128;59.340;18.040;2022-11-30T04:06:01;4.00;99.90
12130;DHT22;6128;59.340;18.040;2022-11-30T04:08:30;4.00;99.90
12130;DHT22;6128;59.340;18.040;2022-11-30T04:10:59;4.00;99.90
12130;DHT22;6128;59.340;18.040;2022-11-30T04:13:29;4.00;99.90
12130;DHT22;6128;59.340;18.040;2022-11-30T04:15:57;4.00;99.90
12130;DHT22;6128;59.340;18.040;2022-11-30T04:18:25;4.00;99.90
12130;DHT22;6128;59.340;18.040;2022-11-30T04:20:54;4.00;99.90
12130;DHT22;6128;59.340;18.040;2022-11-30T04:23:23;4.00;99.90
12130;DHT22;6128;59.340;18.040;2022-11-30T04:25:52;4.00;99.90
12130;DHT22;6128;59.340;18.040;2022-11-30T04:28:20;4.00;99.90
12130;DHT22;6128;59.340;18.040;2022-11-30T04:30:47;4.00;99.90
12130;DHT22;6128;59.340;18.040;2022-11-30T04:33:15;4.00;99.90
12130;DHT22;6128;59.340;18.040;2022-11-30T04:35:46;4.00;99.90
12130;DHT22;6128;59.340;18.040;2022-11-30T04:38:14;4.10;99.90
12130;DHT22;6128;59.340;18.040;2022-11-30T04:40:42;4.10;99.90
12130;DHT22;6128;59.340;18.040;2022-11-30T04:43:12;4.10;99.90
12130;DHT22;6128;59.340;18.040;2022-11-30T04:45:40;4.10;99.90
12130;DHT22;6128;59.340;18.040;2022-11-30T04:48:09;4.10;99.90
12130;DHT22;6128;59.340;18.040;2022-11-30T04:50:36;4.20;99.90
12130;DHT22;6128;59.340;18.040;2022-11-30T04:53:04;4.20;99.90
12130;DHT22;6128;59.340;18.040;2022-11-30T04:55:31;4.20;99.90
12130;DHT22;6128;59.340;18.040;2022-11-30T04:57:58;4.20;99.90
12130;DHT22;6128;59.340;18.040;2022-11-30T05:00:28;4.30;99.90
12130;DHT22;6128;59.340;18.040;2022-11-30T05:02:55;4.20;99.90
12130;DHT22;6128;59.340;18.040;2022-11-30T05:05:22;4.20;99.90
12130;DHT22;6128;59.340;18.040;2022-11-30T05:07:50;4.20;99.90
12130;DHT22;6128;59.340;18.040;2022-11-30T05:10:20;4.20;99.90
12130;DHT22;6128;59.340;18.040;2022-11-30T05:12:47;4.20;99.90
12130;DHT22;6128;59.340;18.040;2022-11-30T05:15:15;4.20;99.90
12130;DHT22;6128;59.340;18.040;2022-11-30T05:17:43;4.20;99.90
12130;DHT22;6128;59.340;18.040;2022-11-30T05:20:11;4.20;99.90
12130;DHT22;6128;59.340;18.040;2022-11-30T05:22:38;4.20;99.90
12130;DHT22;6128;59.340;18.040;2022-11-30T05:25:06;4.30;99.90
12130;DHT22;6128;59.340;18.040;2022-11-30T05:27:34;4.30;99.90
12130;DHT22;6128;59.340;18.040;2022-11-30T05:30:03;4.30;99.90
12130;DHT22;6128;59.340;18.040;2022-11-30T05:32:30;4.30;99.90
12130;DHT22;6128;59.340;18.040;2022-11-30T05:34:59;4.30;99.90
12130;DHT22;6128;59.340;18.040;2022-11-30T05:37:26;4.30;99.90
12130;DHT22;6128;59.340;18.040;2022-11-30T05:39:54;4.30;99.90
12130;DHT22;6128;59.340;18.040;2022-11-30T05:42:21;4.30;99.90
12130;DHT22;6128;59.340;18.040;2022-11-30T05:44:48;4.30;99.90
12130;DHT22;6128;59.340;18.040;2022-11-30T05:47:15;4.30;99.90
12130;DHT22;6128;59.340;18.040;2022-11-30T05:49:51;4.30;99.90
12130;DHT22;6128;59.340;18.040;2022-11-30T05:52:26;4.40;99.90
12130;DHT22;6128;59.340;18.040;2022-11-30T05:54:53;4.40;99.90
12130;DHT22;6128;59.340;18.040;2022-11-30T05:57:20;4.40;99.90
12130;DHT22;6128;59.340;18.040;2022-11-30T05:59:47;4.40;99.90
12130;DHT22;6128;59.340;18.040;2022-11-30T06:02:15;4.50;99.90
12130;DHT22;6128;59.340;18.040;2022-11-30T06:04:43;4.40;99.90
12130;DHT22;6128;59.340;18.040;2022-11-30T06:07:11;4.50;99.90
12130;DHT22;6128;59.340;18.040;2022-11-30T06:09:39;4.50;99.90
12130;DHT22;6128;59.340;18.040;2022-11-30T06:12:07;4.40;99.90
12130;DHT22;6128;59.340;18.040;2022-11-30T06:14:34;4.40;99.90
12130;DHT22;6128;59.340;18.040;2022-11-30T06:17:01;4.40;99.90
12130;DHT22;6128;59.340;18.040;2022-11-30T06:19:29;4.40;99.90
12130;DHT22;6128;59.340;18.040;2022-11-30T06:21:56;4.40;99.90
12130;DHT22;6128;59.340;18.040;2022-11-30T06:24:23;4.30;99.90
12130;DHT22;6128;59.340;18.040;2022-11-30T06:26:51;4.30;99.90
12130;DHT22;6128;59.340;18.040;2022-11-30T06:29:19;4.30;99.90
12130;DHT22;6128;59.340;18.040;2022-11-30T06:31:46;4.30;99.90
12130;DHT22;6128;59.340;18.040;2022-11-30T06:34:13;4.20;99.90
12130;DHT22;6128;59.340;18.040;2022-11-30T06:36:40;4.20;99.90
12130;DHT22;6128;59.340;18.040;2022-11-30T06:39:09;4.10;99.90
12130;DHT22;6128;59.340;18.040;2022-11-30T06:41:37;4.10;99.90
12130;DHT22;6128;59.340;18.040;2022-11-30T06:44:08;4.00;99.90
12130;DHT22;6128;59.340;18.040;2022-11-30T06:46:36;4.00;99.90
12130;DHT22;6128;59.340;18.040;2022-11-30T06:49:05;3.90;99.90
12130;DHT22;6128;59.340;18.040;2022-11-30T06:51:33;3.90;99.90
12130;DHT22;6128;59.340;18.040;2022-11-30T06:54:01;3.90;99.90
12130;DHT22;6128;59.340;18.040;2022-11-30T06:56:29;3.90;99.90
12130;DHT22;6128;59.340;18.040;2022-11-30T06:58:57;3.90;99.90
12130;DHT22;6128;59.340;18.040;2022-11-30T07:01:26;3.80;99.90
12130;DHT22;6128;59.340;18.040;2022-11-30T07:03:54;3.80;99.90
12130;DHT22;6128;59.340;18.040;2022-11-30T07:06:22;3.80;99.90
12130;DHT22;6128;59.340;18.040;2022-11-30T07:08:49;3.80;99.90
12130;DHT22;6128;59.340;18.040;2022-11-30T07:11:17;3.80;99.90
12130;DHT22;6128;59.340;18.040;2022-11-30T07:13:46;3.80;99.90
12130;DHT22;6128;59.340;18.040;2022-11-30T07:16:13;3.80;99.90
12130;DHT22;6128;59.340;18.040;2022-11-30T07:18:43;3.80;99.90
12130;DHT22;6128;59.340;18.040;2022-11-30T07:21:11;3.80;99.90
12130;DHT22;6128;59.340;18.040;2022-11-30T07:23:39;3.70;99.90
12130;DHT22;6128;59.340;18.040;2022-11-30T07:26:24;3.70;99.90
12130;DHT22;6128;59.340;18.040;2022-11-30T07:28:54;3.70;99.90
12130;DHT22;6128;59.340;18.040;2022-11-30T07:31:24;3.70;99.90
12130;DHT22;6128;59.340;18.040;2022-11-30T07:33:55;3.70;99.90
12130;DHT22;6128;59.340;18.040;2022-11-30T07:36:24;3.80;99.90
12130;DHT22;6128;59.340;18.040;2022-11-30T07:38:51;3.80;99.90
12130;DHT22;6128;59.340;18.040;2022-11-30T07:41:19;3.80;99.90
12130;DHT22;6128;59.340;18.040;2022-11-30T07:43:46;3.80;99.90
12130;DHT22;6128;59.340;18.040;2022-11-30T07:46:14;3.80;99.90
12130;DHT22;6128;59.340;18.040;2022-11-30T07:48:43;3.90;99.90
12130;DHT22;6128;59.340;18.040;2022-11-30T07:51:14;3.90;99.90
12130;DHT22;6128;59.340;18.040;2022-11-30T07:53:41;4.00;99.90
12130;DHT22;6128;59.340;18.040;2022-11-30T07:56:10;4.10;99.90
12130;DHT22;6128;59.340;18.040;2022-11-30T07:58:38;4.20;99.90
12130;DHT22;6128;59.340;18.040;2022-11-30T08:01:07;4.20;99.90
12130;DHT22;6128;59.340;18.040;2022-11-30T08:03:35;4.20;99.90
12130;DHT22;6128;59.340;18.040;2022-11-30T08:06:04;4.30;99.90
12130;DHT22;6128;59.340;18.040;2022-11-30T08:08:34;4.60;99.90
12130;DHT22;6128;59.340;18.040;2022-11-30T08:11:03;4.90;99.90
12130;DHT22;6128;59.340;18.040;2022-11-30T08:13:30;5.10;99.90
12130;DHT22;6128;59.340;18.040;2022-11-30T08:16:00;5.30;99.90
12130;DHT22;6128;59.340;18.040;2022-11-30T08:18:27;5.40;99.90
12130;DHT22;6128;59.340;18.040;2022-11-30T08:20:58;5.60;99.90
12130;DHT22;6128;59.340;18.040;2022-11-30T08:23:27;6.10;99.90
12130;DHT22;6128;59.340;18.040;2022-11-30T08:25:57;6.50;99.90
12130;DHT22;6128;59.340;18.040;2022-11-30T08:28:28;6.60;99.90
12130;DHT22;6128;59.340;18.040;2022-11-30T08:30:58;6.70;99.90
12130;DHT22;6128;59.340;18.040;2022-11-30T08:33:25;7.00;99.90
12130;DHT22;6128;59.340;18.040;2022-11-30T08:35:53;7.10;99.90
12130;DHT22;6128;59.340;18.040;2022-11-30T08:38:20;6.90;99.90
12130;DHT22;6128;59.340;18.040;2022-11-30T08:40:47;6.60;99.90
12130;DHT22;6128;59.340;18.040;2022-11-30T08:43:15;6.30;99.90
12130;DHT22;6128;59.340;18.040;2022-11-30T08:45:42;6.10;99.90
12130;DHT22;6128;59.340;18.040;2022-11-30T08:48:09;5.90;99.90
12130;DHT22;6128;59.340;18.040;2022-11-30T08:50:37;5.70;99.90
12130;DHT22;6128;59.340;18.040;2022-11-30T08:53:04;5.50;99.90
12130;DHT22;6128;59.340;18.040;2022-11-30T08:55:31;5.20;99.90
12130;DHT22;6128;59.340;18.040;2022-11-30T08:57:58;5.00;99.90
12130;DHT22;6128;59.340;18.040;2022-11-30T09:00:27;4.90;99.90
12130;DHT22;6128;59.340;18.040;2022-11-30T09:02:54;4.80;99.90
12130;DHT22;6128;59.340;18.040;2022-11-30T09:05:22;4.70;99.90
12130;DHT22;6128;59.340;18.040;2022-11-30T09:07:49;4.60;99.90
12130;DHT22;6128;59.340;18.040;2022-11-30T09:10:16;4.60;99.90
12130;DHT22;6128;59.340;18.040;2022-11-30T09:12:43;4.60;99.90
12130;DHT22;6128;59.340;18.040;2022-11-30T09:15:11;4.50;99.90
12130;DHT22;6128;59.340;18.040;2022-11-30T09:17:40;4.50;99.90
12130;DHT22;6128;59.340;18.040;2022-11-30T09:20:08;4.50;99.90
12130;DHT22;6128;59.340;18.040;2022-11-30T09:22:36;4.40;99.90
12130;DHT22;6128;59.340;18.040;2022-11-30T09:25:06;4.40;99.90
12130;DHT22;6128;59.340;18.040;2022-11-30T09:27:34;4.40;99.90
12130;DHT22;6128;59.340;18.040;2022-11-30T09:30:15;4.40;99.90
12130;DHT22;6128;59.340;18.040;2022-11-30T09:32:44;4.40;99.90
12130;DHT22;6128;59.340;18.040;2022-11-30T09:35:11;4.40;99.90
12130;DHT22;6128;59.340;18.040;2022-11-30T09:37:39;4.40;99.90
12130;DHT22;6128;59.340;18.040;2022-11-30T09:40:07;4.40;99.90
12130;DHT22;6128;59.340;18.040;2022-11-30T09:42:47;4.40;99.90
12130;DHT22;6128;59.340;18.040;2022-11-30T09:45:18;4.40;99.90
12130;DHT22;6128;59.340;18.040;2022-11-30T09:50:59;4.40;99.90
12130;DHT22;6128;59.340;18.040;2022-11-30T09:53:37;4.40;99.90
12130;DHT22;6128;59.340;18.040;2022-11-30T09:56:16;4.50;99.90
12130;DHT22;6128;59.340;18.040;2022-11-30T09:58:46;4.50;99.90
12130;DHT22;6128;59.340;18.040;2022-11-30T10:01:16;4.50;99.90
12130;DHT22;6128;59.340;18.040;2022-11-30T10:03:44;4.50;99.90
12130;DHT22;6128;59.340;18.040;2022-11-30T10:06:20;4.50;99.90
12130;DHT22;6128;59.340;18.040;2022-11-30T10:09:04;4.50;99.90
12130;DHT22;6128;59.340;18.040;2022-11-30T10:11:53;4.50;99.90
12130;DHT22;6128;59.340;18.040;2022-11-30T10:17:34;4.60;99.90
12130;DHT22;6128;59.340;18.040;2022-11-30T10:23:24;4.80;99.90
12130;DHT22;6128;59.340;18.040;2022-11-30T10:25:55;4.80;99.90
12130;DHT22;6128;59.340;18.040;2022-11-30T10:28:30;4.90;99.90
12130;DHT22;6128;59.340;18.040;2022-11-30T10:31:00;4.90;99.90
12130;DHT22;6128;59.340;18.040;2022-11-30T10:33:31;5.00;99.90
12130;DHT22;6128;59.340;18.040;2022-11-30T10:36:03;5.00;99.90
12130;DHT22;6128;59.340;18.040;2022-11-30T10:41:36;5.00;99.90
12130;DHT22;6128;59.340;18.040;2022-11-30T10:44:10;5.00;99.90
12130;DHT22;6128;59.340;18.040;2022-11-30T10:46:43;5.00;99.90
12130;DHT22;6128;59.340;18.040;2022-11-30T10:49:16;5.00;99.90
12130;DHT22;6128;59.340;18.040;2022-11-30T10:51:46;5.00;99.90
12130;DHT22;6128;59.340;18.040;2022-11-30T10:54:17;5.10;99.90
12130;DHT22;6128;59.340;18.040;2022-11-30T10:56:55;5.10;99.90
12130;DHT22;6128;59.340;18.040;2022-11-30T10:59:25;5.10;99.90
12130;DHT22;6128;59.340;18.040;2022-11-30T11:01:53;5.10;99.90
12130;DHT22;6128;59.340;18.040;2022-11-30T11:04:21;5.10;99.90
12130;DHT22;6128;59.340;18.040;2022-11-30T11:06:51;5.10;99.90
12130;DHT22;6128;59.340;18.040;2022-11-30T11:12:16;5.10;99.90
12130;DHT22;6128;59.340;18.040;2022-11-30T11:14:44;5.10;99.90
12130;DHT22;6128;59.340;18.040;2022-11-30T11:17:22;5.10;99.90
12130;DHT22;6128;59.340;18.040;2022-11-30T11:19:50;5.10;99.90
12130;DHT22;6128;59.340;18.040;2022-11-30T11:22:20;5.00;99.90
12130;DHT22;6128;59.340;18.040;2022-11-30T11:24:48;4.90;99.90
12130;DHT22;6128;59.340;18.040;2022-11-30T11:27:24;4.80;99.90
12130;DHT22;6128;59.340;18.040;2022-11-30T11:30:02;4.70;99.90
12130;DHT22;6128;59.340;18.040;2022-11-30T11:32:30;4.50;99.90
12130;DHT22;6128;59.340;18.040;2022-11-30T11:34:58;4.50;99.90
12130;DHT22;6128;59.340;18.040;2022-11-30T11:37:30;4.50;99.90
12130;DHT22;6128;59.340;18.040;2022-11-30T11:40:01;4.40;99.90
12130;DHT22;6128;59.340;18.040;2022-11-30T11:42:32;4.50;99.90
12130;DHT22;6128;59.340;18.040;2022-11-30T11:45:00;4.50;99.90
12130;DHT22;6128;59.340;18.040;2022-11-30T11:47:35;4.50;99.90
12130;DHT22;6128;59.340;18.040;2022-11-30T11:52:47;4.60;99.90
12130;DHT22;6128;59.340;18.040;2022-11-30T11:55:16;4.70;99.90
12130;DHT22;6128;59.340;18.040;2022-11-30T11:57:48;4.70;99.90
12130;DHT22;6128;59.340;18.040;2022-11-30T12:00:19;4.70;99.90
12130;DHT22;6128;59.340;18.040;2022-11-30T12:02:52;4.60;99.90
12130;DHT22;6128;59.340;18.040;2022-11-30T12:05:26;4.60;99.90
12130;DHT22;6128;59.340;18.040;2022-11-30T12:08:08;4.60;99.90
12130;DHT22;6128;59.340;18.040;2022-11-30T12:10:42;4.50;99.90
12130;DHT22;6128;59.340;18.040;2022-11-30T12:13:15;4.50;99.90
12130;DHT22;6128;59.340;18.040;2022-11-30T12:16:02;4.50;99.90
12130;DHT22;6128;59.340;18.040;2022-11-30T12:18:39;4.50;99.90
12130;DHT22;6128;59.340;18.040;2022-11-30T12:21:13;4.40;99.90
12130;DHT22;6128;59.340;18.040;2022-11-30T12:23:57;4.50;99.90
12130;DHT22;6128;59.340;18.040;2022-11-30T12:26:32;4.50;99.90
12130;DHT22;6128;59.340;18.040;2022-11-30T12:29:18;4.40;99.90
12130;DHT22;6128;59.340;18.040;2022-11-30T12:31:56;4.40;99.90
12130;DHT22;6128;59.340;18.040;2022-11-30T12:37:21;4.40;99.90
12130;DHT22;6128;59.340;18.040;2022-11-30T12:39:59;4.40;99.90
12130;DHT22;6128;59.340;18.040;2022-11-30T12:42:36;4.40;99.90
12130;DHT22;6128;59.340;18.040;2022-11-30T12:45:13;4.40;99.90
12130;DHT22;6128;59.340;18.040;2022-11-30T12:47:51;4.30;99.90
12130;DHT22;6128;59.340;18.040;2022-11-30T12:50:39;4.30;99.90
12130;DHT22;6128;59.340;18.040;2022-11-30T12:53:19;4.30;99.90
12130;DHT22;6128;59.340;18.040;2022-11-30T12:55:56;4.30;99.90
12130;DHT22;6128;59.340;18.040;2022-11-30T12:58:34;4.30;99.90
12130;DHT22;6128;59.340;18.040;2022-11-30T13:01:17;4.20;99.90
12130;DHT22;6128;59.340;18.040;2022-11-30T13:03:55;4.20;99.90
12130;DHT22;6128;59.340;18.040;2022-11-30T13:06:27;4.20;99.90
12130;DHT22;6128;59.340;18.040;2022-11-30T13:08:59;4.10;99.90
12130;DHT22;6128;59.340;18.040;2022-11-30T13:11:33;4.10;99.90
12130;DHT22;6128;59.340;18.040;2022-11-30T13:14:00;4.10;99.90
12130;DHT22;6128;59.340;18.040;2022-11-30T13:16:30;4.10;99.90
12130;DHT22;6128;59.340;18.040;2022-11-30T13:19:06;4.00;99.90
12130;DHT22;6128;59.340;18.040;2022-11-30T13:21:39;4.00;99.90
12130;DHT22;6128;59.340;18.040;2022-11-30T13:24:10;4.00;99.90
12130;DHT22;6128;59.340;18.040;2022-11-30T13:26:44;4.00;99.90
12130;DHT22;6128;59.340;18.040;2022-11-30T13:29:30;4.00;99.90
12130;DHT22;6128;59.340;18.040;2022-11-30T13:32:09;4.00;99.90
12130;DHT22;6128;59.340;18.040;2022-11-30T13:34:36;4.00;99.90
12130;DHT22;6128;59.340;18.040;2022-11-30T13:37:05;4.00;99.90
12130;DHT22;6128;59.340;18.040;2022-11-30T13:39:44;4.00;99.90
12130;DHT22;6128;59.340;18.040;2022-11-30T13:42:31;3.90;99.90
12130;DHT22;6128;59.340;18.040;2022-11-30T13:45:17;3.90;99.90
12130;DHT22;6128;59.340;18.040;2022-11-30T13:47:50;3.90;99.90
12130;DHT22;6128;59.340;18.040;2022-11-30T13:50:23;3.90;99.90
12130;DHT22;6128;59.340;18.040;2022-11-30T13:53:20;3.90;99.90
12130;DHT22;6128;59.340;18.040;2022-11-30T13:56:06;3.90;99.90
12130;DHT22;6128;59.340;18.040;2022-11-30T14:02:50;3.90;99.90
12130;DHT22;6128;59.340;18.040;2022-11-30T14:05:24;3.90;99.90
12130;DHT22;6128;59.340;18.040;2022-11-30T14:08:29;3.90;99.90
12130;DHT22;6128;59.340;18.040;2022-11-30T14:13:57;3.90;99.90
12130;DHT22;6128;59.340;18.040;2022-11-30T14:16:28;3.90;99.90
12130;DHT22;6128;59.340;18.040;2022-11-30T14:19:00;3.90;99.90
12130;DHT22;6128;59.340;18.040;2022-11-30T14:21:31;3.90;99.90
12130;DHT22;6128;59.340;18.040;2022-11-30T14:24:22;3.80;99.90
12130;DHT22;6128;59.340;18.040;2022-11-30T14:26:50;3.80;99.90
12130;DHT22;6128;59.340;18.040;2022-11-30T14:29:22;3.80;99.90
12130;DHT22;6128;59.340;18.040;2022-11-30T14:31:54;3.80;99.90
12130;DHT22;6128;59.340;18.040;2022-11-30T14:34:27;3.80;99.90
12130;DHT22;6128;59.340;18.040;2022-11-30T14:37:11;3.80;99.90
12130;DHT22;6128;59.340;18.040;2022-11-30T14:39:48;3.70;99.90
12130;DHT22;6128;59.340;18.040;2022-11-30T14:42:20;3.70;99.90
12130;DHT22;6128;59.340;18.040;2022-11-30T14:44:48;3.70;99.90
12130;DHT22;6128;59.340;18.040;2022-11-30T14:47:20;3.60;99.90
12130;DHT22;6128;59.340;18.040;2022-11-30T14:49:51;3.60;99.90
12130;DHT22;6128;59.340;18.040;2022-11-30T14:52:30;3.60;99.90
12130;DHT22;6128;59.340;18.040;2022-11-30T14:55:12;3.60;99.90
12130;DHT22;6128;59.340;18.040;2022-11-30T14:57:45;3.50;99.90
12130;DHT22;6128;59.340;18.040;2022-11-30T15:00:16;3.50;99.90
12130;DHT22;6128;59.340;18.040;2022-11-30T15:02:46;3.50;99.90
12130;DHT22;6128;59.340;18.040;2022-11-30T15:05:20;3.50;99.90
12130;DHT22;6128;59.340;18.040;2022-11-30T15:07:49;3.50;99.90
12130;DHT22;6128;59.340;18.040;2022-11-30T15:10:23;3.50;99.90
12130;DHT22;6128;59.340;18.040;2022-11-30T15:12:55;3.50;99.90
12130;DHT22;6128;59.340;18.040;2022-11-30T15:15:26;3.50;99.90
12130;DHT22;6128;59.340;18.040;2022-11-30T15:17:55;3.40;99.90
12130;DHT22;6128;59.340;18.040;2022-11-30T15:20:27;3.40;99.90
12130;DHT22;6128;59.340;18.040;2022-11-30T15:22:58;3.40;99.90
12130;DHT22;6128;59.340;18.040;2022-11-30T15:25:33;3.40;99.90
12130;DHT22;6128;59.340;18.040;2022-11-30T15:28:02;3.30;99.90
12130;DHT22;6128;59.340;18.040;2022-11-30T15:30:31;3.30;99.90
12130;DHT22;6128;59.340;18.040;2022-11-30T15:32:58;3.30;99.90
12130;DHT22;6128;59.340;18.040;2022-11-30T15:35:27;3.30;99.90
12130;DHT22;6128;59.340;18.040;2022-11-30T15:37:54;3.20;99.90
12130;DHT22;6128;59.340;18.040;2022-11-30T15:40:28;3.20;99.90
12130;DHT22;6128;59.340;18.040;2022-11-30T15:42:56;3.20;99.90
12130;DHT22;6128;59.340;18.040;2022-11-30T15:45:31;3.20;99.90
12130;DHT22;6128;59.340;18.040;2022-11-30T15:48:01;3.20;99.90
12130;DHT22;6128;59.340;18.040;2022-11-30T15:50:38;3.20;99.90
12130;DHT22;6128;59.340;18.040;2022-11-30T15:53:25;3.20;99.90
12130;DHT22;6128;59.340;18.040;2022-11-30T15:55:53;3.20;99.90
12130;DHT22;6128;59.340;18.040;2022-11-30T15:58:39;3.20;99.90
12130;DHT22;6128;59.340;18.040;2022-11-30T16:01:13;3.20;99.90
12130;DHT22;6128;59.340;18.040;2022-11-30T16:04:03;3.20;99.90
12130;DHT22;6128;59.340;18.040;2022-11-30T16:06:34;3.20;99.90
12130;DHT22;6128;59.340;18.040;2022-11-30T16:09:17;3.20;99.90
12130;DHT22;6128;59.340;18.040;2022-11-30T16:11:53;3.20;99.90
12130;DHT22;6128;59.340;18.040;2022-11-30T16:14:21;3.20;99.90
12130;DHT22;6128;59.340;18.040;2022-11-30T16:16:49;3.30;99.90
12130;DHT22;6128;59.340;18.040;2022-11-30T16:19:18;3.30;99.90
12130;DHT22;6128;59.340;18.040;2022-11-30T16:21:50;3.30;99.90
12130;DHT22;6128;59.340;18.040;2022-11-30T16:24:17;3.30;99.90
12130;DHT22;6128;59.340;18.040;2022-11-30T16:26:46;3.40;99.90
12130;DHT22;6128;59.340;18.040;2022-11-30T16:29:13;3.40;99.90
12130;DHT22;6128;59.340;18.040;2022-11-30T16:31:41;3.50;99.90
12130;DHT22;6128;59.340;18.040;2022-11-30T16:34:10;3.50;99.90
12130;DHT22;6128;59.340;18.040;2022-11-30T16:36:37;3.60;99.90
12130;DHT22;6128;59.340;18.040;2022-11-30T16:39:10;3.60;99.90
12130;DHT22;6128;59.340;18.040;2022-11-30T16:41:38;3.60;99.90